Time;durP1;ratioP1;P1;durP2;ratioP2;P2;SDS_P1;SDS_P2;PMS_P1;PMS_P2;Temp;Humidity;BMP_temperature;BMP_pressure;BME280_temperature;BME280_humidity;BME280_pressure;Samples;Min_cycle;Max_cycle;Signal;HPM_P1;HPM_P2
2022/12/20 00:01:09;;;;;;;41.85;23.08;;;20.00;59.10;;;;;;5081754;28;20111;-69
2022/12/20 00:03:36;;;;;;;46.13;23.73;;;20.00;58.90;;;;;;5028998;28;20087;-70
2022/12/20 00:06:03;;;;;;;43.30;22.77;;;19.90;58.70;;;;;;5054506;28;20049;-71
2022/12/20 00:08:29;;;;;;;46.30;24.30;;;19.90;58.30;;;;;;5052605;28;20547;-71
2022/12/20 00:10:55;;;;;;;40.42;23.63;;;19.90;58.20;;;;;;5057178;28;20037;-71
2022/12/20 00:13:21;;;;;;;43.10;24.35;;;19.90;58.20;;;;;;5053230;28;20068;-71
2022/12/20 00:15:47;;;;;;;41.72;20.98;;;19.90;58.10;;;;;;5057445;28;20381;-71
2022/12/20 00:18:13;;;;;;;40.00;21.35;;;19.80;57.90;;;;;;5073614;28;20033;-71
2022/12/20 00:20:39;;;;;;;38.20;20.20;;;19.80;57.80;;;;;;5067725;28;20087;-71
2022/12/20 00:23:05;;;;;;;40.03;20.85;;;19.80;57.60;;;;;;5062437;28;20029;-70
2022/12/20 00:25:30;;;;;;;38.17;19.17;;;19.90;57.60;;;;;;5061123;28;20036;-71
2022/12/20 00:27:56;;;;;;;42.03;20.33;;;19.70;57.30;;;;;;5054463;28;20375;-71
2022/12/20 00:30:22;;;;;;;39.60;19.52;;;19.80;57.30;;;;;;5071586;28;20032;-69
2022/12/20 00:32:49;;;;;;;36.28;19.27;;;19.80;57.50;;;;;;5055309;28;20029;-71
2022/12/20 00:35:14;;;;;;;34.95;17.85;;;19.70;57.50;;;;;;5034030;28;20048;-70
2022/12/20 00:37:41;;;;;;;32.67;17.98;;;19.70;57.60;;;;;;5054248;28;20088;-71
2022/12/20 00:40:07;;;;;;;36.55;17.02;;;19.70;57.60;;;;;;5064038;28;20033;-70
2022/12/20 00:42:33;;;;;;;35.42;17.05;;;19.80;57.50;;;;;;5035693;28;20428;-71
2022/12/20 00:44:59;;;;;;;34.00;17.58;;;19.70;57.30;;;;;;5053287;28;20048;-71
2022/12/20 00:47:25;;;;;;;32.25;17.33;;;19.70;57.10;;;;;;5068855;28;20045;-71
2022/12/20 00:49:51;;;;;;;28.48;16.25;;;19.70;57.20;;;;;;5072928;28;20470;-71
2022/12/20 00:52:17;;;;;;;31.67;16.92;;;19.60;57.20;;;;;;5055153;28;20048;-71
2022/12/20 00:54:43;;;;;;;26.98;15.68;;;19.70;57.20;;;;;;5036560;28;20400;-71
2022/12/20 00:57:09;;;;;;;27.30;16.02;;;19.60;57.00;;;;;;5053184;28;20529;-71
2022/12/20 00:59:35;;;;;;;32.25;16.38;;;19.70;57.00;;;;;;5034909;28;20481;-69
2022/12/20 01:02:01;;;;;;;35.03;18.17;;;19.80;56.70;;;;;;5053506;28;20330;-71
2022/12/20 01:04:27;;;;;;;35.03;16.15;;;19.80;56.60;;;;;;5020611;28;20036;-71
2022/12/20 01:06:53;;;;;;;30.40;15.95;;;19.80;57.00;;;;;;5074390;28;20082;-71
2022/12/20 01:09:19;;;;;;;27.65;15.38;;;19.80;56.60;;;;;;5075447;28;20373;-70
2022/12/20 01:11:45;;;;;;;27.65;15.63;;;19.80;56.70;;;;;;5072220;28;20041;-68
2022/12/20 01:14:14;;;;;;;28.60;14.32;;;19.90;56.50;;;;;;5072514;28;20478;-71
2022/12/20 01:16:43;;;;;;;27.23;15.48;;;19.90;56.40;;;;;;5083703;28;20032;-71
2022/12/20 01:19:15;;;;;;;26.45;15.35;;;19.80;56.10;;;;;;5090428;28;20438;-71
2022/12/20 01:21:45;;;;;;;27.92;16.05;;;19.80;55.90;;;;;;5085206;28;20043;-71
2022/12/20 01:24:13;;;;;;;31.95;17.23;;;19.80;55.80;;;;;;5067496;28;20051;-71
2022/12/20 01:26:39;;;;;;;29.75;16.42;;;19.90;55.90;;;;;;5072390;28;20123;-70
2022/12/20 01:29:05;;;;;;;30.83;15.30;;;19.70;55.70;;;;;;5070525;28;20062;-71
2022/12/20 01:31:31;;;;;;;30.92;15.32;;;19.70;55.80;;;;;;5079410;28;20032;-71
2022/12/20 01:33:58;;;;;;;33.15;15.80;;;19.80;55.40;;;;;;5091711;28;20413;-69
2022/12/20 01:36:36;;;;;;;24.75;13.80;;;19.70;55.30;;;;;;5081954;28;20044;-71
2022/12/20 01:39:04;;;;;;;28.00;16.23;;;19.70;55.10;;;;;;5071434;28;20024;-71
2022/12/20 01:41:31;;;;;;;28.33;15.85;;;19.70;55.00;;;;;;5084619;28;20021;-71
2022/12/20 01:44:06;;;;;;;28.40;15.43;;;19.70;55.00;;;;;;5091229;28;20036;-71
2022/12/20 01:46:34;;;;;;;28.80;15.05;;;19.70;55.00;;;;;;5090260;28;20094;-70
2022/12/20 01:49:13;;;;;;;26.65;13.95;;;19.70;55.00;;;;;;5073017;28;20133;-71
2022/12/20 01:51:48;;;;;;;23.30;13.45;;;19.70;55.10;;;;;;5075767;28;20482;-71
2022/12/20 01:54:40;;;;;;;26.85;13.68;;;19.70;55.20;;;;;;5072169;28;20038;-71
2022/12/20 01:57:13;;;;;;;30.27;14.07;;;19.60;55.00;;;;;;5091535;28;20024;-71
2022/12/20 01:59:41;;;;;;;25.65;13.63;;;19.60;55.00;;;;;;5071563;28;20028;-71
2022/12/20 02:02:11;;;;;;;26.60;14.32;;;19.80;55.00;;;;;;5069826;28;20039;-71
2022/12/20 02:04:38;;;;;;;25.38;14.98;;;19.60;54.80;;;;;;5071698;28;20062;-71
2022/12/20 02:07:07;;;;;;;22.20;14.75;;;19.70;54.90;;;;;;5057993;28;20486;-71
2022/12/20 02:09:36;;;;;;;27.83;15.18;;;19.70;54.90;;;;;;5070028;28;20043;-71
2022/12/20 02:12:13;;;;;;;23.77;14.80;;;19.70;54.70;;;;;;5065997;28;20021;-71
2022/12/20 02:14:51;;;;;;;30.08;15.55;;;19.70;54.70;;;;;;5051591;28;20037;-71
2022/12/20 02:17:55;;;;;;;27.67;15.93;;;19.70;54.70;;;;;;5049671;28;20028;-72
2022/12/20 02:20:42;;;;;;;30.35;15.75;;;19.70;54.60;;;;;;5071514;28;20039;-70
2022/12/20 02:23:26;;;;;;;27.10;14.52;;;19.80;54.50;;;;;;5034817;28;20035;-71
2022/12/20 02:26:30;;;;;;;29.15;15.82;;;19.90;54.60;;;;;;5051005;28;20466;-71
2022/12/20 02:29:32;;;;;;;28.75;13.80;;;19.80;54.30;;;;;;5033517;28;20025;-71
2022/12/20 02:32:07;;;;;;;28.20;14.70;;;19.60;54.40;;;;;;5050002;28;20131;-71
2022/12/20 02:34:35;;;;;;;23.08;14.02;;;19.60;54.00;;;;;;5053391;28;20131;-71
2022/12/20 02:37:01;;;;;;;28.73;15.07;;;19.70;54.50;;;;;;5013296;28;20037;-71
2022/12/20 02:39:29;;;;;;;25.05;13.25;;;19.60;54.50;;;;;;5038917;28;20037;-70
2022/12/20 02:42:04;;;;;;;28.17;15.25;;;19.50;54.70;;;;;;5070336;28;20536;-71
2022/12/20 02:47:23;;;;;;;25.95;15.23;;;19.50;54.50;;;;;;5068183;28;20040;-71
2022/12/20 02:49:52;;;;;;;26.45;13.80;;;19.50;54.50;;;;;;5044259;28;20554;-69
2022/12/20 02:52:20;;;;;;;26.08;14.30;;;19.50;54.60;;;;;;5030297;28;20505;-71
2022/12/20 02:54:47;;;;;;;26.98;15.43;;;19.40;54.30;;;;;;5011530;28;20045;-71
2022/12/20 02:57:16;;;;;;;25.63;14.02;;;19.40;54.30;;;;;;5047878;28;20163;-71
2022/12/20 03:00:15;;;;;;;24.88;14.43;;;19.40;54.30;;;;;;5027995;28;20867;-71
2022/12/20 03:05:27;;;;;;;26.13;14.15;;;19.40;54.40;;;;;;5027939;28;20055;-70
2022/12/20 03:07:53;;;;;;;31.27;14.68;;;19.40;54.40;;;;;;5030238;28;20043;-71
2022/12/20 03:10:23;;;;;;;23.25;13.05;;;19.40;54.20;;;;;;5047045;28;20072;-71
2022/12/20 03:12:49;;;;;;;25.40;12.73;;;19.50;54.40;;;;;;4997677;28;20091;-70
2022/12/20 03:15:16;;;;;;;25.70;13.90;;;19.40;54.10;;;;;;5028851;28;20041;-69
2022/12/20 03:17:42;;;;;;;26.40;13.73;;;19.30;54.60;;;;;;5027759;28;20092;-70
2022/12/20 03:20:10;;;;;;;21.63;12.15;;;19.40;54.70;;;;;;5019709;28;20037;-71
2022/12/20 03:22:36;;;;;;;24.55;12.93;;;19.30;54.70;;;;;;5038351;28;20102;-71
2022/12/20 03:25:03;;;;;;;28.25;14.45;;;19.40;54.40;;;;;;5037567;28;20037;-70
2022/12/20 03:27:31;;;;;;;25.35;13.63;;;19.60;54.40;;;;;;5034775;28;20119;-70
2022/12/20 03:29:58;;;;;;;23.30;13.30;;;19.50;54.40;;;;;;5037990;28;20332;-71
2022/12/20 03:32:25;;;;;;;26.15;14.48;;;19.50;54.30;;;;;;5053275;28;20025;-70
2022/12/20 03:34:51;;;;;;;22.95;12.95;;;19.50;54.30;;;;;;5055888;28;20033;-68
2022/12/20 03:37:24;;;;;;;22.83;13.52;;;19.40;54.10;;;;;;5012242;28;20045;-71
2022/12/20 03:39:50;;;;;;;23.67;13.20;;;19.60;54.00;;;;;;5044627;28;20058;-70
2022/12/20 03:42:16;;;;;;;23.08;13.30;;;19.60;53.90;;;;;;5046148;28;20064;-71
2022/12/20 03:44:42;;;;;;;25.77;13.63;;;19.60;53.90;;;;;;5054375;28;20075;-71
2022/12/20 03:47:09;;;;;;;24.48;13.43;;;19.60;53.70;;;;;;5035988;28;20044;-71
2022/12/20 03:49:36;;;;;;;21.35;12.88;;;19.70;53.70;;;;;;5050954;28;20053;-70
2022/12/20 03:52:03;;;;;;;22.73;13.23;;;19.80;53.70;;;;;;5041443;28;20392;-70
2022/12/20 03:54:29;;;;;;;21.63;12.52;;;19.90;53.70;;;;;;5038698;28;20442;-71
2022/12/20 03:57:14;;;;;;;24.85;13.25;;;19.80;53.50;;;;;;5044792;28;20031;-70
2022/12/20 03:59:40;;;;;;;23.38;13.10;;;19.80;53.30;;;;;;5043479;28;20087;-71
2022/12/20 04:02:08;;;;;;;18.95;11.43;;;19.80;53.20;;;;;;5013545;28;20033;-71
2022/12/20 04:04:34;;;;;;;25.05;13.20;;;19.90;53.30;;;;;;5035418;28;20029;-71
2022/12/20 04:07:00;;;;;;;23.17;13.52;;;19.90;53.20;;;;;;5061746;28;20102;-70
2022/12/20 04:09:26;;;;;;;23.27;12.55;;;19.80;52.90;;;;;;5013208;28;20558;-71
2022/12/20 04:11:58;;;;;;;21.52;12.50;;;19.90;53.10;;;;;;4995474;28;20133;-69
2022/12/20 04:14:26;;;;;;;24.88;13.25;;;20.00;53.00;;;;;;4995107;28;20037;-69
2022/12/20 04:16:52;;;;;;;23.65;13.93;;;20.00;52.70;;;;;;4992030;28;20113;-71
2022/12/20 04:19:20;;;;;;;22.25;12.45;;;19.80;52.70;;;;;;5013760;28;20041;-71
2022/12/20 04:21:46;;;;;;;24.52;12.38;;;20.00;52.70;;;;;;5011950;28;20076;-71
2022/12/20 04:24:14;;;;;;;22.83;12.15;;;20.10;52.80;;;;;;5010823;28;20128;-69
2022/12/20 04:26:44;;;;;;;21.20;12.73;;;20.00;52.50;;;;;;4995580;28;20053;-71
2022/12/20 04:29:12;;;;;;;23.75;12.50;;;20.00;52.60;;;;;;4995142;28;20121;-70
2022/12/20 04:31:39;;;;;;;22.63;11.32;;;20.10;52.80;;;;;;4995965;28;20046;-71
2022/12/20 04:34:05;;;;;;;24.38;12.95;;;20.10;52.50;;;;;;5009814;28;20052;-71
2022/12/20 04:36:33;;;;;;;24.17;12.32;;;20.10;52.40;;;;;;4996308;28;20119;-70
2022/12/20 04:39:02;;;;;;;22.88;11.82;;;20.20;52.50;;;;;;5011197;28;20030;-70
2022/12/20 04:41:33;;;;;;;23.35;11.75;;;20.20;52.50;;;;;;5011086;28;20399;-71
2022/12/20 04:44:06;;;;;;;24.73;12.15;;;20.10;52.70;;;;;;5014509;28;20155;-71
2022/12/20 04:46:35;;;;;;;22.15;12.68;;;20.20;52.80;;;;;;5020896;28;20056;-71
2022/12/20 04:49:03;;;;;;;21.08;12.50;;;20.30;52.40;;;;;;5037047;28;20031;-70
2022/12/20 04:51:32;;;;;;;30.27;14.57;;;20.20;52.40;;;;;;5051938;28;20043;-71
2022/12/20 04:53:58;;;;;;;25.80;15.00;;;20.10;52.60;;;;;;5037017;28;20037;-70
2022/12/20 04:56:38;;;;;;;26.27;15.05;;;20.10;52.60;;;;;;5035457;28;20052;-70
2022/12/20 04:59:10;;;;;;;27.75;13.38;;;20.10;52.30;;;;;;5034871;28;20044;-71
2022/12/20 05:01:38;;;;;;;24.02;13.52;;;20.00;52.60;;;;;;5034498;28;20040;-70
2022/12/20 05:04:04;;;;;;;25.20;12.70;;;20.00;52.60;;;;;;5034531;28;20041;-71
2022/12/20 05:06:34;;;;;;;22.02;12.50;;;19.90;52.80;;;;;;5061968;28;20497;-70
2022/12/20 05:09:00;;;;;;;23.52;12.85;;;19.80;52.60;;;;;;5071514;28;20530;-71
2022/12/20 05:11:26;;;;;;;22.23;13.55;;;19.90;52.60;;;;;;5073079;28;20098;-71
2022/12/20 05:13:52;;;;;;;28.83;15.60;;;19.80;52.40;;;;;;5071299;28;20053;-69
2022/12/20 05:16:20;;;;;;;33.92;16.23;;;19.70;52.40;;;;;;5080515;28;20039;-71
2022/12/20 05:18:46;;;;;;;35.33;18.00;;;19.80;52.50;;;;;;5072392;28;20527;-71
2022/12/20 05:27:06;;;;;;;25.48;11.88;;;19.70;52.50;;;;;;5047311;28;20045;-71
2022/12/20 05:29:32;;;;;;;21.13;12.27;;;19.60;52.40;;;;;;5049768;28;20390;-71
2022/12/20 05:31:58;;;;;;;22.10;12.55;;;19.60;52.40;;;;;;5047312;28;20039;-70
2022/12/20 05:34:25;;;;;;;24.25;13.55;;;19.70;52.50;;;;;;5032297;28;20061;-69
2022/12/20 05:36:53;;;;;;;21.98;11.15;;;19.50;52.60;;;;;;5031130;28;20066;-70
2022/12/20 05:39:21;;;;;;;22.15;12.95;;;19.50;52.80;;;;;;5000225;28;20088;-71
2022/12/20 05:41:49;;;;;;;19.85;10.82;;;19.50;52.50;;;;;;5032417;28;20044;-71
2022/12/20 05:44:16;;;;;;;17.63;10.60;;;19.50;52.30;;;;;;5016001;28;20049;-70
2022/12/20 05:46:45;;;;;;;16.88;10.38;;;19.60;52.20;;;;;;5022042;28;20045;-70
2022/12/20 05:49:16;;;;;;;23.38;11.32;;;19.50;52.20;;;;;;5012986;28;20095;-71
2022/12/20 05:51:43;;;;;;;19.95;10.60;;;19.50;52.20;;;;;;5029116;28;20046;-70
2022/12/20 05:54:35;;;;;;;17.45;10.48;;;19.50;52.30;;;;;;4971352;28;20603;-70
2022/12/20 05:57:10;;;;;;;19.58;11.07;;;19.50;52.40;;;;;;4970068;28;20074;-71
2022/12/20 05:59:39;;;;;;;23.67;11.50;;;19.40;52.30;;;;;;4954232;28;20076;-69
2022/12/20 06:02:11;;;;;;;22.15;13.68;;;19.50;54.70;;;;;;4971245;28;20130;-70
2022/12/20 06:04:37;;;;;;;23.00;13.73;;;19.40;54.70;;;;;;4993795;28;20072;-69
2022/12/20 06:07:11;;;;;;;19.35;12.05;;;19.40;52.50;;;;;;4973676;28;20047;-66
2022/12/20 06:09:37;;;;;;;23.58;13.02;;;19.50;51.30;;;;;;5008240;28;20503;-66
2022/12/20 06:12:06;;;;;;;16.20;10.15;;;19.50;48.30;;;;;;4989839;28;20053;-68
2022/12/20 06:14:33;;;;;;;15.10;7.85;;;19.60;47.50;;;;;;4993062;28;20042;-68
2022/12/20 06:17:00;;;;;;;18.00;9.82;;;19.70;44.80;;;;;;4991600;28;20469;-68
2022/12/20 06:19:26;;;;;;;19.10;12.80;;;19.80;43.20;;;;;;5000709;28;20568;-68
2022/12/20 06:21:56;;;;;;;14.75;9.02;;;20.00;45.80;;;;;;4996398;28;20081;-73
2022/12/20 06:24:32;;;;;;;18.98;11.38;;;20.20;43.60;;;;;;4983142;28;20042;-69
2022/12/20 06:26:58;;;;;;;15.52;10.18;;;20.20;42.00;;;;;;4987790;28;20045;-71
2022/12/20 06:29:25;;;;;;;20.15;12.50;;;20.40;41.90;;;;;;4975045;28;20034;-71
2022/12/20 06:32:04;;;;;;;19.27;11.25;;;20.50;41.90;;;;;;5068937;28;20040;-71
2022/12/20 06:34:31;;;;;;;15.50;9.57;;;20.50;41.60;;;;;;5078002;28;20485;-68
2022/12/20 06:36:57;;;;;;;20.15;12.02;;;20.70;40.80;;;;;;5076418;28;20036;-67
2022/12/20 06:39:26;;;;;;;22.30;8.23;;;20.80;42.20;;;;;;5053887;28;20048;-67
2022/12/20 06:42:01;;;;;;;18.98;12.27;;;20.80;41.70;;;;;;5094664;28;20077;-68
2022/12/20 06:44:27;;;;;;;16.30;10.23;;;20.90;40.40;;;;;;5082906;28;20028;-69
2022/12/20 06:46:53;;;;;;;23.85;14.25;;;20.90;43.00;;;;;;5069116;28;20063;-69
2022/12/20 06:49:21;;;;;;;25.27;15.43;;;21.00;42.30;;;;;;5069738;28;20528;-69
2022/12/20 06:51:47;;;;;;;39.88;22.17;;;21.00;43.80;;;;;;5069597;28;20113;-69
2022/12/20 06:54:14;;;;;;;22.20;13.27;;;21.00;44.70;;;;;;5068230;28;20028;-69
2022/12/20 06:56:40;;;;;;;19.00;11.07;;;21.10;42.10;;;;;;5068335;28;20032;-69
2022/12/20 06:59:08;;;;;;;23.67;12.00;;;21.20;43.00;;;;;;5080416;28;20027;-69
2022/12/20 07:01:34;;;;;;;23.23;11.65;;;21.20;56.60;;;;;;5058707;28;20037;-69
2022/12/20 07:04:00;;;;;;;25.65;12.18;;;21.30;58.10;;;;;;5092803;28;20032;-69
2022/12/20 07:06:28;;;;;;;16.58;9.60;;;21.20;56.70;;;;;;5050983;28;20056;-69
2022/12/20 07:08:55;;;;;;;19.52;9.80;;;21.00;61.60;;;;;;5093880;28;20501;-69
2022/12/20 07:11:21;;;;;;;19.23;9.93;;;21.10;58.20;;;;;;5076667;28;20081;-68
2022/12/20 07:13:49;;;;;;;18.33;9.65;;;21.00;58.00;;;;;;5090983;28;20058;-67
2022/12/20 07:16:15;;;;;;;17.80;9.55;;;20.90;58.00;;;;;;5083490;28;20029;-67
2022/12/20 07:18:41;;;;;;;23.42;11.35;;;20.90;57.90;;;;;;5075818;28;20040;-68
2022/12/20 07:21:07;;;;;;;16.33;8.88;;;20.70;58.00;;;;;;5082929;28;20028;-67
2022/12/20 07:23:33;;;;;;;18.02;10.82;;;20.50;54.70;;;;;;5044600;28;20384;-67
2022/12/20 07:26:02;;;;;;;19.27;11.63;;;20.50;58.10;;;;;;5075603;28;20031;-70
2022/12/20 07:28:28;;;;;;;17.67;11.02;;;20.50;56.70;;;;;;5064113;28;20036;-67
2022/12/20 07:30:59;;;;;;;20.60;11.15;;;20.50;58.20;;;;;;5075367;28;20078;-69
2022/12/20 07:33:24;;;;;;;19.23;9.93;;;20.40;58.30;;;;;;5073635;28;20035;-69
2022/12/20 07:35:50;;;;;;;18.30;9.43;;;20.30;59.50;;;;;;5067996;28;20381;-68
2022/12/20 07:38:16;;;;;;;17.65;9.82;;;20.40;59.90;;;;;;5069799;28;20082;-69
2022/12/20 07:40:42;;;;;;;17.58;9.45;;;20.30;60.80;;;;;;5068309;28;20064;-69
2022/12/20 07:43:09;;;;;;;15.02;8.63;;;20.40;61.90;;;;;;5072918;28;20027;-69
2022/12/20 07:45:36;;;;;;;20.95;9.02;;;20.20;62.60;;;;;;5082484;28;20036;-69
2022/12/20 07:48:04;;;;;;;17.08;8.43;;;20.30;63.20;;;;;;5086744;28;20067;-70
2022/12/20 07:50:31;;;;;;;13.93;7.38;;;20.40;61.70;;;;;;5085619;28;20044;-69
2022/12/20 07:52:58;;;;;;;15.35;8.07;;;20.40;62.40;;;;;;5078330;28;20035;-69
2022/12/20 07:55:24;;;;;;;12.85;6.60;;;20.50;61.80;;;;;;5070368;28;20107;-69
2022/12/20 07:57:56;;;;;;;15.70;8.18;;;20.50;62.00;;;;;;5072584;28;20109;-69
2022/12/20 08:00:22;;;;;;;11.35;6.85;;;20.50;62.60;;;;;;5075460;28;20048;-69
2022/12/20 08:02:52;;;;;;;13.55;7.43;;;20.50;60.80;;;;;;5081251;28;20029;-70
2022/12/20 08:05:18;;;;;;;13.77;6.63;;;20.70;61.10;;;;;;5064952;28;20542;-69
2022/12/20 08:07:46;;;;;;;8.68;5.93;;;20.70;62.50;;;;;;5086633;28;20025;-68
2022/12/20 08:10:14;;;;;;;4.78;3.47;;;21.00;61.30;;;;;;5075495;28;20043;-69
2022/12/20 08:12:42;;;;;;;6.63;3.63;;;21.00;60.60;;;;;;5084378;28;20527;-70
2022/12/20 08:15:08;;;;;;;12.80;6.65;;;21.20;58.80;;;;;;5077337;28;20075;-70
2022/12/20 08:17:34;;;;;;;5.70;3.85;;;21.30;55.60;;;;;;5081453;28;20032;-67
2022/12/20 08:20:00;;;;;;;2.72;2.17;;;21.30;55.70;;;;;;5084659;28;20039;-69
2022/12/20 08:22:26;;;;;;;10.95;5.93;;;21.30;55.50;;;;;;5074756;28;20636;-69
2022/12/20 08:24:52;;;;;;;13.52;7.38;;;21.30;55.70;;;;;;5078514;28;20040;-68
2022/12/20 08:27:18;;;;;;;13.57;6.20;;;21.20;55.10;;;;;;5084613;28;20056;-69
2022/12/20 08:29:44;;;;;;;12.43;5.93;;;21.30;55.50;;;;;;5073514;28;20059;-68
2022/12/20 08:32:11;;;;;;;10.75;6.50;;;21.30;55.20;;;;;;5079611;28;20382;-69
2022/12/20 08:34:37;;;;;;;6.57;3.33;;;21.40;54.60;;;;;;5091344;28;20119;-69
2022/12/20 08:37:04;;;;;;;8.27;4.70;;;21.40;54.40;;;;;;5083452;28;20622;-69
2022/12/20 08:39:30;;;;;;;3.92;2.10;;;21.60;53.60;;;;;;5073733;28;20044;-68
2022/12/20 08:41:55;;;;;;;15.32;6.70;;;21.50;53.00;;;;;;5074681;28;20044;-69
2022/12/20 08:44:22;;;;;;;14.52;7.03;;;21.70;51.90;;;;;;5077798;28;20024;-70
2022/12/20 08:46:48;;;;;;;17.00;8.77;;;21.60;50.50;;;;;;5085493;28;20025;-69
2022/12/20 08:49:14;;;;;;;14.57;7.72;;;21.50;51.10;;;;;;5071966;28;20052;-70
2022/12/20 08:51:40;;;;;;;13.70;7.60;;;21.50;56.30;;;;;;5073012;28;20040;-69
2022/12/20 08:54:06;;;;;;;15.32;8.32;;;21.30;55.00;;;;;;5078266;28;20093;-69
2022/12/20 08:56:32;;;;;;;17.15;9.15;;;21.30;55.50;;;;;;5084882;28;20043;-67
2022/12/20 08:58:58;;;;;;;16.77;9.38;;;21.30;55.60;;;;;;5075741;28;20032;-69
2022/12/20 09:01:25;;;;;;;14.10;8.88;;;21.20;55.90;;;;;;5074117;28;20101;-69
2022/12/20 09:03:52;;;;;;;18.52;8.20;;;21.10;55.50;;;;;;5079636;28;20024;-70
2022/12/20 09:06:20;;;;;;;12.70;6.70;;;21.10;56.70;;;;;;5068306;28;20140;-69
2022/12/20 09:08:47;;;;;;;14.52;8.07;;;21.10;57.30;;;;;;5043724;28;20029;-69
2022/12/20 09:11:16;;;;;;;14.75;7.55;;;21.20;56.90;;;;;;5054035;28;20041;-72
2022/12/20 09:13:44;;;;;;;14.02;7.93;;;21.10;56.90;;;;;;5052344;28;20852;-67
2022/12/20 09:16:14;;;;;;;9.95;5.63;;;21.20;57.40;;;;;;5037050;28;20025;-70
2022/12/20 09:18:40;;;;;;;13.30;7.30;;;21.10;57.80;;;;;;5052880;28;20044;-69
2022/12/20 09:21:08;;;;;;;15.15;7.47;;;21.00;53.50;;;;;;5052192;28;20037;-71
2022/12/20 09:23:35;;;;;;;19.05;7.35;;;20.90;56.40;;;;;;5052670;28;20033;-70
2022/12/20 09:26:07;;;;;;;13.68;7.47;;;21.00;57.70;;;;;;5028657;28;20127;-70
2022/12/20 09:28:34;;;;;;;11.85;6.72;;;21.00;57.80;;;;;;5065582;28;20032;-70
2022/12/20 09:31:01;;;;;;;10.18;5.97;;;21.10;57.50;;;;;;5033331;28;20045;-71
2022/12/20 09:33:29;;;;;;;12.10;7.32;;;21.10;56.80;;;;;;5052368;28;20037;-70
2022/12/20 09:35:56;;;;;;;14.35;7.00;;;21.00;56.00;;;;;;5052358;28;20044;-70
2022/12/20 09:38:22;;;;;;;13.73;6.32;;;21.00;57.00;;;;;;5004025;28;20049;-69
2022/12/20 09:40:54;;;;;;;11.65;5.85;;;21.00;58.10;;;;;;4999779;28;20090;-69
2022/12/20 09:43:21;;;;;;;11.65;6.20;;;21.00;58.10;;;;;;5052370;28;20033;-70
2022/12/20 09:45:51;;;;;;;11.05;7.07;;;21.00;56.00;;;;;;5051924;28;20037;-70
2022/12/20 09:48:31;;;;;;;12.27;6.45;;;21.00;56.80;;;;;;5002978;28;20044;-70
2022/12/20 09:51:10;;;;;;;9.07;4.82;;;21.00;55.90;;;;;;5069055;28;20449;-69
2022/12/20 09:54:05;;;;;;;11.55;5.63;;;21.10;58.00;;;;;;5016650;28;20541;-70
2022/12/20 09:56:48;;;;;;;7.55;4.80;;;21.00;57.80;;;;;;5018652;28;20033;-69
2022/12/20 09:59:18;;;;;;;12.27;5.47;;;21.10;57.90;;;;;;5021943;28;20038;-70
2022/12/20 10:01:46;;;;;;;12.95;5.10;;;21.30;56.90;;;;;;5009580;28;20038;-70
2022/12/20 10:04:32;;;;;;;8.32;4.28;;;21.50;57.70;;;;;;5012405;28;20112;-72
2022/12/20 10:07:19;;;;;;;9.77;5.22;;;21.50;57.50;;;;;;5064979;28;20133;-70
2022/12/20 10:09:54;;;;;;;9.27;5.40;;;21.60;57.70;;;;;;5069077;28;20149;-71
2022/12/20 10:12:26;;;;;;;7.78;4.97;;;21.60;56.40;;;;;;5059919;28;20544;-70
2022/12/20 10:15:21;;;;;;;10.82;4.97;;;21.50;56.80;;;;;;5063075;28;20086;-73
2022/12/20 10:18:05;;;;;;;8.35;4.90;;;21.50;56.00;;;;;;5051719;28;20036;-73
2022/12/20 10:20:50;;;;;;;8.70;5.72;;;21.60;56.80;;;;;;5066134;28;20033;-72
2022/12/20 10:23:50;;;;;;;10.88;6.22;;;21.60;56.40;;;;;;5050210;28;20127;-72
2022/12/20 10:26:16;;;;;;;12.52;6.80;;;21.60;57.30;;;;;;5073548;28;20107;-73
2022/12/20 10:28:42;;;;;;;11.77;6.60;;;21.50;52.90;;;;;;5070778;28;20416;-73
2022/12/20 10:31:13;;;;;;;11.45;6.07;;;21.40;56.00;;;;;;5071274;28;20041;-72
2022/12/20 10:33:40;;;;;;;9.23;5.07;;;21.40;56.90;;;;;;5070961;28;20686;-72
2022/12/20 10:36:22;;;;;;;12.40;6.07;;;21.40;58.20;;;;;;5072125;28;20033;-72
2022/12/20 10:38:50;;;;;;;11.55;5.68;;;21.50;58.20;;;;;;5051976;28;20045;-73
2022/12/20 10:41:19;;;;;;;10.43;5.97;;;21.60;58.20;;;;;;5071009;28;20028;-73
2022/12/20 10:43:50;;;;;;;6.32;3.72;;;21.60;57.70;;;;;;5071941;28;20043;-72
2022/12/20 10:46:17;;;;;;;12.98;5.60;;;21.50;58.30;;;;;;5089968;28;20073;-72
2022/12/20 10:48:45;;;;;;;14.50;5.28;;;21.50;58.30;;;;;;5108845;28;20023;-73
2022/12/20 10:51:11;;;;;;;12.07;5.20;;;21.60;58.80;;;;;;5098447;28;20040;-70
2022/12/20 10:53:51;;;;;;;10.18;6.00;;;21.60;59.40;;;;;;5089977;28;20047;-71
2022/12/20 10:56:26;;;;;;;7.22;5.15;;;21.60;58.70;;;;;;5079308;28;20551;-72
2022/12/20 10:59:02;;;;;;;9.00;4.60;;;21.40;61.20;;;;;;5071246;28;20033;-73
2022/12/20 11:01:32;;;;;;;11.57;7.00;;;21.50;62.20;;;;;;5085811;28;20032;-72
2022/12/20 11:04:05;;;;;;;8.70;5.00;;;21.30;61.10;;;;;;5089980;28;20090;-73
2022/12/20 11:06:37;;;;;;;9.98;4.72;;;21.20;64.10;;;;;;5078807;28;20055;-73
2022/12/20 11:09:24;;;;;;;7.22;3.75;;;21.30;64.50;;;;;;5069640;28;20430;-69
2022/12/20 11:12:12;;;;;;;8.32;5.53;;;21.50;63.60;;;;;;5052491;28;20759;-73
2022/12/20 11:14:40;;;;;;;10.95;5.70;;;21.60;62.00;;;;;;5056607;28;20359;-72
2022/12/20 11:17:59;;;;;;;8.50;4.93;;;21.60;62.60;;;;;;5053975;28;20417;-73
2022/12/20 11:20:37;;;;;;;13.02;5.70;;;21.60;62.10;;;;;;5018514;28;20709;-71
2022/12/20 11:23:08;;;;;;;6.50;3.88;;;21.80;62.30;;;;;;5028092;28;20529;-72
2022/12/20 11:26:06;;;;;;;6.68;3.83;;;21.80;62.40;;;;;;5027864;28;20759;-73
2022/12/20 11:29:09;;;;;;;12.02;4.88;;;21.90;61.50;;;;;;5027161;28;20033;-70
2022/12/20 11:31:45;;;;;;;;;;;21.80;62.60;;;;;;4965947;28;20497;-70
2022/12/20 11:34:34;;;;;;;9.65;5.28;;;21.80;62.60;;;;;;4966564;28;19910;-72
2022/12/20 11:37:05;;;;;;;7.82;5.40;;;21.90;63.60;;;;;;4964477;28;20047;-72
2022/12/20 11:39:47;;;;;;;7.55;4.97;;;21.90;63.10;;;;;;4969009;28;20066;-72
2022/12/20 11:42:50;;;;;;;11.38;5.95;;;21.80;64.00;;;;;;4952978;28;20046;-72
2022/12/20 11:45:31;;;;;;;12.77;6.40;;;21.80;63.80;;;;;;4953575;29;20046;-72
2022/12/20 11:48:34;;;;;;;12.07;6.25;;;21.80;63.40;;;;;;4960793;28;20039;-72
2022/12/20 11:51:04;;;;;;;7.03;4.47;;;21.60;63.70;;;;;;4962300;28;20184;-71
2022/12/20 11:53:39;;;;;;;6.45;4.72;;;21.40;49.60;;;;;;4967885;28;21153;-71
2022/12/20 11:56:35;;;;;;;7.55;4.53;;;21.50;49.60;;;;;;4971365;28;20042;-71
2022/12/20 11:59:23;;;;;;;6.35;3.67;;;21.50;47.20;;;;;;4980131;28;20042;-71
2022/12/20 12:01:56;;;;;;;10.15;4.85;;;21.50;45.40;;;;;;4986078;28;20046;-69
2022/12/20 12:04:29;;;;;;;6.50;4.80;;;21.60;44.70;;;;;;4973590;28;20125;-71
2022/12/20 12:07:01;;;;;;;6.80;4.60;;;21.60;47.20;;;;;;4956327;28;20050;-67
2022/12/20 12:09:48;;;;;;;25.10;8.67;;;21.80;51.40;;;;;;5066423;28;20044;-70
2022/12/20 12:12:32;;;;;;;21.95;6.93;;;22.00;45.50;;;;;;5078186;28;20118;-69
2022/12/20 12:15:14;;;;;;;10.23;5.53;;;22.10;44.90;;;;;;5082523;28;20162;-69
2022/12/20 12:17:47;;;;;;;9.30;5.68;;;22.10;46.00;;;;;;5086371;28;20119;-69
2022/12/20 12:20:43;;;;;;;11.38;5.90;;;22.00;42.90;;;;;;5073640;28;20037;-70
2022/12/20 12:23:48;;;;;;;20.35;7.20;;;22.10;42.70;;;;;;5076984;28;20210;-69
2022/12/20 12:26:22;;;;;;;10.60;4.97;;;22.10;43.20;;;;;;5006812;28;20065;-69
2022/12/20 12:28:57;;;;;;;9.35;6.40;;;22.10;45.80;;;;;;5002263;28;20127;-68
2022/12/20 12:31:39;;;;;;;9.18;6.03;;;22.10;46.90;;;;;;4997561;28;20569;-69
2022/12/20 12:34:37;;;;;;;7.30;3.95;;;22.10;45.00;;;;;;4991847;28;20117;-73
2022/12/20 12:37:14;;;;;;;13.02;5.63;;;22.10;43.00;;;;;;5000327;28;20081;-69
2022/12/20 12:40:09;;;;;;;10.55;6.32;;;22.10;42.80;;;;;;5009169;28;20038;-72
2022/12/20 12:42:47;;;;;;;8.63;5.35;;;21.90;40.30;;;;;;5000663;28;20038;-71
2022/12/20 12:45:31;;;;;;;10.35;5.47;;;21.90;43.30;;;;;;4999521;28;20077;-71
2022/12/20 12:48:04;;;;;;;9.60;5.75;;;21.90;41.50;;;;;;5002286;28;20056;-74
2022/12/20 12:50:52;;;;;;;8.73;5.45;;;21.90;43.60;;;;;;5009360;28;20060;-72
2022/12/20 12:53:37;;;;;;;10.93;5.63;;;21.90;43.50;;;;;;5007362;28;20608;-70
2022/12/20 12:56:24;;;;;;;7.90;4.80;;;21.90;45.10;;;;;;5008838;28;20468;-72
2022/12/20 12:59:44;;;;;;;11.23;5.90;;;21.80;43.50;;;;;;4999667;28;20501;-73
2022/12/20 13:02:13;;;;;;;10.65;7.00;;;21.70;45.00;;;;;;4964330;28;20439;-71
2022/12/20 13:05:02;;;;;;;7.65;4.00;;;21.60;44.90;;;;;;4990095;28;20060;-73
2022/12/20 13:07:34;;;;;;;11.18;6.00;;;21.60;42.50;;;;;;4896743;29;20044;-70